createdAt,value
2018-05-25T00:00:40.952Z,15.00
2018-05-25T00:03:08.484Z,15.00
2018-05-25T00:05:36.044Z,15.00
2018-05-25T00:08:03.576Z,15.00
2018-05-25T00:10:31.127Z,14.90
2018-05-25T00:12:59.436Z,14.90
2018-05-25T00:15:27.000Z,14.90
2018-05-25T00:17:54.529Z,14.90
2018-05-25T00:20:22.072Z,14.90
2018-05-25T00:22:50.381Z,14.90
2018-05-25T00:25:17.932Z,14.90
2018-05-25T00:27:45.468Z,14.90
2018-05-25T00:30:13.776Z,14.90
2018-05-25T00:32:41.316Z,14.90
2018-05-25T00:35:08.865Z,14.90
2018-05-25T00:37:37.263Z,14.90
2018-05-25T00:40:04.823Z,14.90
2018-05-25T00:42:32.359Z,15.00
2018-05-25T00:45:00.659Z,15.00
2018-05-25T00:47:28.214Z,15.00
2018-05-25T00:49:55.748Z,15.00
2018-05-25T00:52:24.075Z,15.00
2018-05-25T00:55:03.415Z,15.00
2018-05-25T00:57:30.959Z,15.00
2018-05-25T00:59:59.255Z,15.10
2018-05-25T01:02:26.822Z,15.10
2018-05-25T01:04:54.365Z,15.10
2018-05-25T01:07:21.952Z,15.20
2018-05-25T01:09:49.487Z,15.20
2018-05-25T01:12:17.040Z,15.20
2018-05-25T01:14:44.575Z,15.20
2018-05-25T01:17:12.180Z,15.20
2018-05-25T01:19:39.720Z,15.30
2018-05-25T01:22:15.824Z,15.30
2018-05-25T01:24:44.127Z,15.30
2018-05-25T01:27:11.688Z,15.30
2018-05-25T01:29:39.219Z,15.30
2018-05-25T01:32:07.539Z,15.20
2018-05-25T01:34:35.074Z,15.20
2018-05-25T01:37:02.636Z,15.20
2018-05-25T01:39:30.175Z,15.20
2018-05-25T01:41:58.495Z,15.10
2018-05-25T01:44:26.032Z,15.10
2018-05-25T01:46:53.582Z,15.00
2018-05-25T01:49:21.115Z,15.00
2018-05-25T01:51:48.667Z,14.90
2018-05-25T01:54:16.967Z,14.90
2018-05-25T01:56:44.517Z,14.80
2018-05-25T01:59:12.811Z,14.80
2018-05-25T02:01:40.359Z,14.70
2018-05-25T02:04:07.904Z,14.70
2018-05-25T02:06:36.224Z,14.60
2018-05-25T02:09:03.756Z,14.60
2018-05-25T02:11:31.316Z,14.60
2018-05-25T02:13:58.848Z,14.50
2018-05-25T02:16:27.168Z,14.50
2018-05-25T02:18:54.700Z,14.50
2018-05-25T02:21:23.020Z,14.50
2018-05-25T02:23:50.555Z,14.50
2018-05-25T02:26:18.339Z,14.50
2018-05-25T02:28:45.978Z,14.50
2018-05-25T02:31:13.536Z,14.50
2018-05-25T02:33:41.067Z,14.50
2018-05-25T02:36:09.395Z,14.40
2018-05-25T02:38:36.972Z,14.40
2018-05-25T02:41:04.472Z,14.40
2018-05-25T02:43:32.027Z,14.50
2018-05-25T02:45:59.579Z,14.50
2018-05-25T02:48:27.905Z,14.50
2018-05-25T02:50:55.440Z,14.50
2018-05-25T02:53:23.007Z,14.50
2018-05-25T02:55:50.544Z,14.50
2018-05-25T02:58:18.104Z,14.50
2018-05-25T03:00:45.635Z,14.50
2018-05-25T03:03:13.963Z,14.60
2018-05-25T03:05:41.505Z,14.60
2018-05-25T03:08:09.065Z,14.60
2018-05-25T03:10:36.604Z,14.60
2018-05-25T03:13:04.929Z,14.60
2018-05-25T03:15:32.464Z,14.60
2018-05-25T03:18:00.021Z,14.60
2018-05-25T03:20:27.559Z,14.70
2018-05-25T03:22:55.112Z,14.70
2018-05-25T03:25:23.411Z,14.70
2018-05-25T03:27:50.954Z,14.70
2018-05-25T03:30:18.497Z,14.70
2018-05-25T03:33:02.091Z,14.70
2018-05-25T03:35:29.670Z,14.80
2018-05-25T03:37:57.228Z,14.80
2018-05-25T03:40:24.763Z,14.80
2018-05-25T03:42:52.317Z,14.80
2018-05-25T03:45:19.857Z,14.80
2018-05-25T03:47:47.418Z,14.80
2018-05-25T03:50:14.956Z,14.80
2018-05-25T03:52:42.519Z,14.80
2018-05-25T03:55:10.055Z,14.80
2018-05-25T03:57:38.381Z,14.80
2018-05-25T04:00:17.855Z,14.80
2018-05-25T04:02:45.416Z,14.80
2018-05-25T04:05:12.951Z,14.90
2018-05-25T04:07:40.504Z,14.90
2018-05-25T04:10:08.042Z,14.90
2018-05-25T04:12:35.631Z,14.90
2018-05-25T04:15:03.164Z,14.90
2018-05-25T04:17:30.716Z,14.90
2018-05-25T04:19:58.248Z,14.90
2018-05-25T04:22:26.572Z,15.00
2018-05-25T04:24:54.107Z,14.90
2018-05-25T04:27:21.638Z,15.00
2018-05-25T04:29:50.156Z,15.10
2018-05-25T04:32:17.687Z,15.00
2018-05-25T04:34:46.003Z,15.20
2018-05-25T04:37:13.535Z,15.10
2018-05-25T04:39:41.088Z,15.20
2018-05-25T04:42:08.623Z,15.20
2018-05-25T04:44:36.940Z,15.30
2018-05-25T04:47:04.472Z,15.30
2018-05-25T04:49:32.037Z,15.30
2018-05-25T04:51:59.581Z,15.40
2018-05-25T04:54:27.900Z,15.40
2018-05-25T04:56:55.430Z,15.40
2018-05-25T04:59:22.984Z,15.40
2018-05-25T05:01:50.580Z,15.40
2018-05-25T05:04:18.132Z,15.40
2018-05-25T05:06:45.659Z,15.40
2018-05-25T05:09:13.214Z,15.40
2018-05-25T05:11:41.513Z,15.40
2018-05-25T05:14:09.068Z,15.40
2018-05-25T05:16:36.912Z,15.50
2018-05-25T05:19:05.220Z,15.50
2018-05-25T05:21:32.764Z,15.40
2018-05-25T05:24:00.324Z,15.50
2018-05-25T05:26:27.864Z,15.70
2018-05-25T05:28:56.191Z,16.10
2018-05-25T05:31:23.728Z,16.10
2018-05-25T05:33:51.290Z,16.40
2018-05-25T05:36:18.829Z,16.50
2018-05-25T05:38:47.967Z,16.50
2018-05-25T05:41:15.501Z,16.50
2018-05-25T05:43:43.069Z,16.50
2018-05-25T05:46:10.608Z,16.50
2018-05-25T05:48:38.153Z,16.60
2018-05-25T05:51:05.708Z,16.60
2018-05-25T05:53:33.244Z,16.70
2018-05-25T05:56:00.797Z,16.80
2018-05-25T05:58:28.332Z,17.00
2018-05-25T06:00:55.888Z,17.10
2018-05-25T06:03:23.428Z,17.20
2018-05-25T06:05:50.989Z,17.30
2018-05-25T06:08:18.530Z,17.30
2018-05-25T06:10:46.090Z,17.30
2018-05-25T06:13:13.619Z,17.30
2018-05-25T06:15:41.941Z,17.40
2018-05-25T06:18:09.476Z,17.30
2018-05-25T06:20:37.027Z,17.40
2018-05-25T06:23:04.984Z,17.50
2018-05-25T06:25:33.304Z,17.50
2018-05-25T06:28:00.834Z,17.40
2018-05-25T06:30:28.388Z,17.50
2018-05-25T06:32:55.988Z,17.50
2018-05-25T06:35:23.556Z,17.50
2018-05-25T06:37:51.120Z,17.60
2018-05-25T06:40:18.684Z,17.60
2018-05-25T06:42:46.225Z,17.70
2018-05-25T06:45:13.775Z,17.70
2018-05-25T06:47:42.204Z,17.80
2018-05-25T06:50:13.039Z,17.80
2018-05-25T06:52:41.578Z,17.80
2018-05-25T06:55:10.094Z,17.70
2018-05-25T06:57:37.681Z,17.70
2018-05-25T07:00:05.289Z,17.80
2018-05-25T07:02:33.005Z,17.80
2018-05-25T07:05:00.665Z,17.80
2018-05-25T07:07:28.288Z,17.90
2018-05-25T07:09:55.876Z,18.00
2018-05-25T07:12:24.629Z,17.80
2018-05-25T07:14:52.196Z,17.80
2018-05-25T07:17:19.723Z,18.00
2018-05-25T07:19:47.284Z,18.30
2018-05-25T07:22:14.831Z,18.40
2018-05-25T07:24:42.396Z,18.70
2018-05-25T07:27:10.043Z,18.80
2018-05-25T07:29:37.736Z,19.10
2018-05-25T07:32:05.314Z,19.10
2018-05-25T07:34:33.716Z,19.60
2018-05-25T07:37:01.269Z,19.60
2018-05-25T07:39:29.601Z,20.10
2018-05-25T07:41:57.141Z,20.00
2018-05-25T07:44:24.696Z,20.30
2018-05-25T07:46:52.245Z,20.60
2018-05-25T07:49:19.768Z,21.00
2018-05-25T07:51:47.331Z,21.30
2018-05-25T07:54:15.655Z,22.00
2018-05-25T07:56:43.228Z,22.00
2018-05-25T07:59:10.777Z,22.00
2018-05-25T08:01:38.384Z,22.10
2018-05-25T08:04:06.701Z,22.20
2018-05-25T08:06:34.276Z,22.20
2018-05-25T08:09:01.816Z,22.40
2018-05-25T08:11:29.373Z,22.50
2018-05-25T08:13:56.911Z,22.50
2018-05-25T08:16:25.223Z,22.40
2018-05-25T08:18:52.747Z,22.30
2018-05-25T08:21:20.305Z,23.00
2018-05-25T08:23:47.848Z,24.00
2018-05-25T08:26:16.171Z,24.40
2018-05-25T08:28:43.716Z,24.40
2018-05-25T08:31:11.334Z,25.30
2018-05-25T08:33:39.670Z,26.50
2018-05-25T08:36:07.267Z,26.40
2018-05-25T08:38:34.804Z,27.00
2018-05-25T08:41:02.364Z,27.80
2018-05-25T08:43:29.909Z,28.30
2018-05-25T08:45:57.465Z,28.20
2018-05-25T08:48:25.013Z,28.00
2018-05-25T08:50:52.572Z,27.10
2018-05-25T08:53:20.105Z,26.50
2018-05-25T08:55:47.659Z,25.80
2018-05-25T08:58:15.953Z,25.90
2018-05-25T09:00:43.523Z,25.80
2018-05-25T09:03:11.150Z,26.10
2018-05-25T09:05:39.541Z,25.60
2018-05-25T09:08:07.103Z,25.50
2018-05-25T09:10:34.683Z,25.90
2018-05-25T09:13:02.346Z,25.90
2018-05-25T09:15:29.920Z,26.10
2018-05-25T09:17:57.546Z,25.70
2018-05-25T09:20:25.248Z,26.00
2018-05-25T09:22:52.857Z,25.30
2018-05-25T09:25:20.498Z,25.10
2018-05-25T09:27:48.712Z,25.30
2018-05-25T09:30:16.329Z,26.00
2018-05-25T09:32:44.639Z,27.10
2018-05-25T09:35:12.211Z,27.10
2018-05-25T09:37:39.744Z,27.40
2018-05-25T09:40:07.303Z,27.60
2018-05-25T09:42:34.832Z,27.60
2018-05-25T09:45:02.371Z,27.60
2018-05-25T09:47:29.915Z,27.60
2018-05-25T09:49:57.452Z,27.00
2018-05-25T09:52:25.016Z,26.20
2018-05-25T09:54:52.552Z,26.30
2018-05-25T09:57:20.099Z,25.30
2018-05-25T09:59:48.396Z,24.80
2018-05-25T10:05:22.288Z,24.60
2018-05-25T10:07:49.834Z,24.80
2018-05-25T10:10:17.361Z,25.00
2018-05-25T10:12:44.904Z,25.20
2018-05-25T10:15:12.441Z,24.40
2018-05-25T10:17:39.993Z,24.80
2018-05-25T10:20:08.301Z,25.80
2018-05-25T10:22:35.852Z,25.80
2018-05-25T10:25:03.383Z,26.40
2018-05-25T10:27:31.729Z,27.30
2018-05-25T10:29:59.255Z,27.30
2018-05-25T10:32:26.816Z,27.20
2018-05-25T10:34:54.356Z,26.00
2018-05-25T10:37:21.903Z,26.60
2018-05-25T10:39:50.204Z,27.60
2018-05-25T10:42:17.748Z,27.60
2018-05-25T10:44:45.281Z,28.60
2018-05-25T10:47:12.818Z,29.00
2018-05-25T10:49:40.349Z,29.40
2018-05-25T10:52:07.887Z,29.90
2018-05-25T10:54:35.413Z,30.30
2018-05-25T10:57:03.719Z,28.70
2018-05-25T10:59:31.243Z,28.60
2018-05-25T11:01:58.781Z,28.70
2018-05-25T11:04:26.316Z,28.90
2018-05-25T11:06:53.855Z,28.50
2018-05-25T11:09:21.379Z,28.40
2018-05-25T11:14:48.253Z,28.90
2018-05-25T11:17:16.557Z,29.10
2018-05-25T11:19:44.842Z,29.30
2018-05-25T11:22:12.383Z,29.30
2018-05-25T11:24:39.903Z,29.20
2018-05-25T11:27:07.509Z,28.80
2018-05-25T11:29:35.751Z,27.40
2018-05-25T11:32:04.061Z,28.60
2018-05-25T11:34:31.631Z,28.60
2018-05-25T11:36:59.180Z,29.30
2018-05-25T11:39:26.703Z,30.10
2018-05-25T11:41:55.019Z,30.70
2018-05-25T11:44:22.544Z,30.70
2018-05-25T11:46:50.851Z,30.60
2018-05-25T11:49:18.375Z,30.50
2018-05-25T11:51:46.690Z,29.40
2018-05-25T11:54:14.220Z,29.30
2018-05-25T11:56:41.833Z,28.60
2018-05-25T11:59:09.359Z,27.50
2018-05-25T12:01:36.917Z,26.50
2018-05-25T12:04:04.450Z,25.50
2018-05-25T12:06:32.016Z,24.10
2018-05-25T12:08:59.561Z,23.20
2018-05-25T12:11:27.114Z,22.20
2018-05-25T12:13:55.419Z,21.30
2018-05-25T12:16:23.011Z,21.20
2018-05-25T12:18:50.503Z,21.30
2018-05-25T12:21:18.832Z,21.20
2018-05-25T12:23:46.404Z,21.20
2018-05-25T12:26:13.931Z,21.20
2018-05-25T12:28:41.480Z,21.10
2018-05-25T12:31:09.005Z,21.20
2018-05-25T12:33:37.342Z,21.30
2018-05-25T12:36:04.959Z,21.30
2018-05-25T12:38:32.514Z,21.40
2018-05-25T12:41:00.044Z,21.30
2018-05-25T12:43:27.590Z,21.50
2018-05-25T12:45:55.128Z,21.70
2018-05-25T12:48:22.685Z,21.80
2018-05-25T12:50:50.216Z,22.20
2018-05-25T12:53:17.784Z,22.40
2018-05-25T12:55:45.315Z,22.50
2018-05-25T12:58:13.636Z,22.70
2018-05-25T13:00:41.192Z,22.70
2018-05-25T13:03:08.756Z,22.80
2018-05-25T13:05:36.288Z,22.70
2018-05-25T13:08:03.860Z,22.50
2018-05-25T13:10:31.410Z,22.20
2018-05-25T13:12:58.967Z,21.90
2018-05-25T13:15:26.505Z,21.60
2018-05-25T13:17:54.047Z,21.40
2018-05-25T13:20:21.601Z,21.10
2018-05-25T13:22:49.170Z,20.80
2018-05-25T13:25:17.480Z,20.30
2018-05-25T13:27:45.074Z,20.30
2018-05-25T13:30:12.638Z,20.00
2018-05-25T13:32:40.224Z,19.80
2018-05-25T13:35:08.561Z,19.50
2018-05-25T13:37:36.947Z,19.40
2018-05-25T13:40:04.497Z,19.20
2018-05-25T13:42:32.561Z,19.10
2018-05-25T13:45:00.142Z,19.00
2018-05-25T13:47:27.711Z,19.00
2018-05-25T13:49:55.258Z,19.10
2018-05-25T13:52:22.861Z,19.10
2018-05-25T13:54:50.412Z,19.20
2018-05-25T13:57:18.733Z,19.20
2018-05-25T13:59:46.284Z,19.20
2018-05-25T14:02:13.832Z,19.30
2018-05-25T14:04:41.376Z,19.40
2018-05-25T14:07:08.940Z,19.40
2018-05-25T14:09:36.470Z,19.50
2018-05-25T14:12:04.801Z,19.40
2018-05-25T14:14:32.343Z,19.40
2018-05-25T14:16:59.909Z,19.40
2018-05-25T14:19:28.211Z,19.50
2018-05-25T14:21:55.748Z,19.60
2018-05-25T14:24:23.328Z,19.50
2018-05-25T14:26:50.876Z,19.60
2018-05-25T14:29:18.453Z,19.40
2018-05-25T14:31:50.364Z,19.40
2018-05-25T14:34:17.935Z,19.90
2018-05-25T14:36:46.064Z,20.20
2018-05-25T14:39:13.624Z,20.60
2018-05-25T14:41:41.189Z,21.10
2018-05-25T14:44:09.520Z,21.50
2018-05-25T14:46:37.055Z,21.40
2018-05-25T14:49:04.627Z,21.50
2018-05-25T14:51:32.173Z,21.80
2018-05-25T14:53:59.740Z,22.10
2018-05-25T14:56:27.288Z,22.30
2018-05-25T14:58:54.879Z,22.70
2018-05-25T15:01:22.469Z,22.80
2018-05-25T15:03:50.814Z,23.30
2018-05-25T15:06:18.375Z,23.30
2018-05-25T15:08:45.927Z,23.60
2018-05-25T15:11:13.452Z,23.90
2018-05-25T15:13:41.009Z,24.10
2018-05-25T15:16:08.613Z,24.30
2018-05-25T15:18:36.277Z,24.60
2018-05-25T15:21:03.801Z,24.70
2018-05-25T15:23:31.348Z,25.00
2018-05-25T15:25:58.888Z,25.20
2018-05-25T15:28:27.196Z,25.10
2018-05-25T15:30:54.878Z,25.10
2018-05-25T15:33:22.290Z,24.90
2018-05-25T15:35:50.582Z,23.90
2018-05-25T15:38:18.131Z,23.90
2018-05-25T15:40:45.660Z,23.90
2018-05-25T15:43:13.202Z,23.50
2018-05-25T15:45:40.722Z,23.30
2018-05-25T15:48:08.276Z,23.20
2018-05-25T15:50:35.808Z,23.00
2018-05-25T15:53:04.130Z,23.20
2018-05-25T15:55:31.689Z,23.20
2018-05-25T15:57:59.236Z,23.30
2018-05-25T16:00:26.755Z,23.10
2018-05-25T16:02:55.073Z,23.20
2018-05-25T16:05:22.604Z,23.20
2018-05-25T16:07:50.160Z,23.20
2018-05-25T16:10:17.696Z,23.10
2018-05-25T16:12:46.024Z,22.70
2018-05-25T16:15:13.560Z,22.60
2018-05-25T16:17:41.112Z,22.40
2018-05-25T16:20:08.647Z,21.80
2018-05-25T16:22:36.755Z,21.50
2018-05-25T16:25:04.367Z,21.40
2018-05-25T16:27:31.892Z,21.40
2018-05-25T16:29:59.865Z,21.40
2018-05-25T16:32:29.073Z,21.20
2018-05-25T16:34:56.623Z,21.20
2018-05-25T16:37:24.160Z,21.10
2018-05-25T16:39:51.744Z,21.00
2018-05-25T16:42:19.833Z,20.90
2018-05-25T16:44:47.388Z,20.70
2018-05-25T16:47:14.937Z,20.70
2018-05-25T16:49:42.509Z,20.60
2018-05-25T16:52:10.052Z,20.40
2018-05-25T16:54:37.634Z,20.50
2018-05-25T16:57:05.168Z,20.50
2018-05-25T16:59:32.740Z,20.50
2018-05-25T17:02:00.283Z,20.50
2018-05-25T17:04:27.833Z,20.30
2018-05-25T17:06:55.369Z,20.40
2018-05-25T17:09:22.916Z,20.50
2018-05-25T17:11:50.482Z,20.60
2018-05-25T17:14:18.032Z,20.50
2018-05-25T17:16:46.334Z,20.60
2018-05-25T17:19:13.896Z,20.60
2018-05-25T17:21:42.188Z,20.80
2018-05-25T17:24:09.755Z,20.80
2018-05-25T17:26:37.329Z,20.90
2018-05-25T17:29:04.916Z,20.80
2018-05-25T17:31:33.235Z,20.60
2018-05-25T17:34:00.826Z,20.60
2018-05-25T17:36:29.168Z,20.30
2018-05-25T17:38:56.732Z,20.30
2018-05-25T17:41:24.260Z,20.30
2018-05-25T17:43:51.813Z,20.30
2018-05-25T17:46:19.344Z,20.20
2018-05-25T17:48:46.883Z,20.10
2018-05-25T17:51:14.412Z,20.10
2018-05-25T17:53:41.956Z,20.00
2018-05-25T17:56:09.487Z,19.90
2018-05-25T17:58:37.795Z,19.70
2018-05-25T18:01:05.323Z,19.70
2018-05-25T18:03:33.637Z,19.50
2018-05-25T18:06:01.166Z,19.40
2018-05-25T18:08:29.479Z,19.30
2018-05-25T18:10:57.003Z,19.30
2018-05-25T18:13:25.320Z,19.10
2018-05-25T18:15:52.903Z,19.10
2018-05-25T18:18:20.441Z,19.00
2018-05-25T18:20:47.988Z,18.90
2018-05-25T18:23:15.516Z,18.80
2018-05-25T18:25:43.063Z,18.70
2018-05-25T18:28:11.360Z,18.50
2018-05-25T18:30:38.920Z,18.50
2018-05-25T18:33:06.460Z,18.40
2018-05-25T18:35:37.201Z,18.20
2018-05-25T18:38:05.523Z,18.10
2018-05-25T18:40:33.295Z,18.00
2018-05-25T18:43:00.828Z,17.90
2018-05-25T18:45:28.396Z,17.80
2018-05-25T18:47:55.920Z,17.70
2018-05-25T18:50:23.472Z,17.50
2018-05-25T18:52:51.014Z,17.40
2018-05-25T18:55:19.324Z,17.30
2018-05-25T18:57:46.856Z,17.20
2018-05-25T19:00:15.168Z,17.10
2018-05-25T19:02:42.687Z,17.10
2018-05-25T19:05:11.004Z,16.90
2018-05-25T19:07:38.526Z,16.90
2018-05-25T19:10:06.855Z,16.70
2018-05-25T19:12:34.390Z,16.70
2018-05-25T19:15:01.933Z,16.60
2018-05-25T19:17:29.462Z,16.50
2018-05-25T19:19:58.065Z,16.40
2018-05-25T19:22:25.568Z,16.30
2018-05-25T19:24:53.161Z,16.20
2018-05-25T19:27:20.719Z,16.10
2018-05-25T19:29:48.274Z,15.90
2018-05-25T19:32:15.813Z,15.90
2018-05-25T19:34:43.377Z,15.80
2018-05-25T19:37:10.916Z,15.70
2018-05-25T19:39:38.460Z,15.60
2018-05-25T19:42:05.984Z,15.50
2018-05-25T19:44:34.374Z,15.50
2018-05-25T19:47:01.932Z,15.40
2018-05-25T19:49:30.259Z,15.40
2018-05-25T19:51:57.784Z,15.30
2018-05-25T19:54:25.372Z,15.30
2018-05-25T19:56:52.956Z,15.20
2018-05-25T19:59:21.323Z,15.10
2018-05-25T20:01:48.992Z,15.10
2018-05-25T20:04:16.585Z,15.00
2018-05-25T20:06:44.124Z,15.00
2018-05-25T20:09:12.704Z,14.90
2018-05-25T20:11:41.023Z,14.80
2018-05-25T20:14:08.695Z,14.80
2018-05-25T20:16:36.270Z,14.70
2018-05-25T20:19:03.886Z,14.70
2018-05-25T20:21:31.451Z,14.60
2018-05-25T20:23:59.102Z,14.60
2018-05-25T20:26:26.673Z,14.60
2018-05-25T20:28:54.269Z,14.60
2018-05-25T20:31:21.825Z,14.50
2018-05-25T20:33:50.241Z,14.50
2018-05-25T20:36:18.623Z,14.40
2018-05-25T20:38:46.856Z,14.40
2018-05-25T20:41:14.469Z,14.40
2018-05-25T20:43:42.051Z,14.40
2018-05-25T20:46:09.638Z,14.40
2018-05-25T20:48:37.235Z,14.40
2018-05-25T20:51:04.955Z,14.30
2018-05-25T20:53:32.580Z,14.30
2018-05-25T20:56:00.278Z,14.30
2018-05-25T20:58:27.896Z,14.30
2018-05-25T21:00:55.511Z,14.20
2018-05-25T21:03:23.867Z,14.10
2018-05-25T21:05:51.430Z,14.10
2018-05-25T21:08:18.972Z,14.10
2018-05-25T21:10:46.515Z,14.00
2018-05-25T21:13:14.036Z,14.00
2018-05-25T21:15:41.572Z,14.00
2018-05-25T21:18:09.117Z,14.00
2018-05-25T21:20:36.665Z,13.90
2018-05-25T21:23:04.191Z,13.90
2018-05-25T21:25:32.500Z,13.80
2018-05-25T21:28:00.024Z,13.80
2018-05-25T21:30:28.327Z,13.80
2018-05-25T21:32:55.848Z,13.80
2018-05-25T21:35:24.159Z,13.80
2018-05-25T21:37:51.688Z,13.80
2018-05-25T21:40:20.001Z,13.80
2018-05-25T21:42:47.599Z,13.70
2018-05-25T21:45:15.087Z,13.70
2018-05-25T21:47:43.375Z,13.60
2018-05-25T21:50:10.933Z,13.60
2018-05-25T21:52:38.452Z,13.60
2018-05-25T21:55:06.003Z,13.60
2018-05-25T21:57:33.525Z,13.60
2018-05-25T22:00:01.059Z,13.50
2018-05-25T22:02:28.592Z,13.50
2018-05-25T22:04:56.137Z,13.50
2018-05-25T22:07:23.671Z,13.50
2018-05-25T22:09:51.215Z,13.50
2018-05-25T22:12:18.742Z,13.50
2018-05-25T22:14:46.282Z,13.40
2018-05-25T22:17:13.811Z,13.40
2018-05-25T22:19:41.350Z,13.30
2018-05-25T22:22:08.875Z,13.30
2018-05-25T22:24:37.207Z,13.20
2018-05-25T22:27:04.737Z,13.20
2018-05-25T22:29:32.262Z,13.10
2018-05-25T22:32:00.572Z,13.00
2018-05-25T22:34:28.099Z,13.00
2018-05-25T22:36:56.412Z,13.00
2018-05-25T22:39:23.940Z,12.90
2018-05-25T22:41:55.678Z,12.90
2018-05-25T22:44:35.810Z,12.90
2018-05-25T22:47:15.067Z,12.90
2018-05-25T22:49:55.316Z,12.80
2018-05-25T22:52:28.060Z,12.80
2018-05-25T22:54:57.390Z,12.80
2018-05-25T22:57:24.932Z,12.80
2018-05-25T22:59:52.466Z,12.80
2018-05-25T23:02:20.028Z,12.80
2018-05-25T23:04:47.551Z,12.80
2018-05-25T23:07:15.869Z,12.80
2018-05-25T23:09:43.401Z,12.80
2018-05-25T23:12:10.956Z,12.80
2018-05-25T23:14:38.487Z,12.80
2018-05-25T23:17:06.809Z,12.80
2018-05-25T23:19:34.327Z,12.80
2018-05-25T23:22:02.632Z,12.80
2018-05-25T23:24:32.284Z,12.70
2018-05-25T23:26:59.826Z,12.80
2018-05-25T23:29:27.348Z,12.70
2018-05-25T23:31:54.909Z,12.70
2018-05-25T23:34:22.439Z,12.70
2018-05-25T23:36:49.996Z,12.70
2018-05-25T23:39:18.296Z,12.70
2018-05-25T23:41:45.859Z,12.60
2018-05-25T23:44:13.391Z,12.60
2018-05-25T23:46:41.712Z,12.50
2018-05-25T23:49:09.248Z,12.50
2018-05-25T23:51:36.797Z,12.60
2018-05-25T23:54:05.103Z,12.60
2018-05-25T23:56:32.652Z,12.50
2018-05-25T23:59:00.179Z,12.60
